Terminal Aerodrome Forecast
Issued by NWS Milwaukee/Sullivan, WI

Home | Current Version | Previous Version | Text Only | Print | Product List | Glossary On
Versions: 1 2 3 4 5 6 7 8 9 10 11 12 13 14 15 16 17 18 19 20 21 22 23 24 25 26 27 28 29 30 31 32
000
FTUS43 KMKX 240636 AAA
TAFMSN
TAF AMD
KMSN 240636Z 2407/2506 06020G27KT 6SM -RA VCTS OVC010CB
      TEMPO 2407/2408 3SM -TSRA BR OVC008CB
     FM240900 06019G27KT 6SM -RAPL VCTS OVC008CB
     FM241300 06016G27KT 4SM -FZRA OVC008
     FM242200 04010KT 3SM -FZRA OVC008
     FM250200 35009KT 3SM -SN OVC008
     FM250500 34010G19KT 3SM -SN OVC010=

USA.gov is the U.S. government's official web portal to all federal, state and local government web resources and services.